Terminal Aerodrome Forecast
Issued by NWS Albany, NY

Home | Current Version | Previous Version | Text Only | Print | Product List | Glossary On
Versions: 1 2 3 4 5 6 7 8 9 10 11 12 13 14 15 16 17 18 19 20 21 22 23 24 25 26 27 28 29 30 31 32 33 34 35 36 37 38 39 40 41 42 43 44 45 46 47 48 49 50
000
FTUS41 KALY 230525
TAFGFL
TAF
KGFL 230525Z 2306/2406 01005KT P6SM SCT015 OVC050
     FM230800 01004KT 5SM -RA BR BKN015 OVC035
     FM231100 02004KT P6SM BKN025 OVC035
     FM231500 02005KT P6SM BKN035 BKN050
     FM231800 04005KT P6SM BKN050 BKN100
     FM240100 00000KT P6SM SCT050 BKN250=

USA.gov is the U.S. government's official web portal to all federal, state and local government web resources and services.